sensor_id;sensor_type;location;lat;lon;timestamp;temperature;humidity
66670;DHT22;53568;52.164;4.472;2023-02-11T00:01:29;9.78;75.78
66670;DHT22;53568;52.164;4.472;2023-02-11T00:03:56;9.77;75.63
66670;DHT22;53568;52.164;4.472;2023-02-11T00:06:24;9.78;75.87
66670;DHT22;53568;52.164;4.472;2023-02-11T00:08:50;9.80;75.78
66670;DHT22;53568;52.164;4.472;2023-02-11T00:11:17;9.80;75.78
66670;DHT22;53568;52.164;4.472;2023-02-11T00:13:44;9.74;75.98
66670;DHT22;53568;52.164;4.472;2023-02-11T00:16:13;9.82;75.77
66670;DHT22;53568;52.164;4.472;2023-02-11T00:18:39;9.77;75.87
66670;DHT22;53568;52.164;4.472;2023-02-11T00:21:06;9.80;75.78
66670;DHT22;53568;52.164;4.472;2023-02-11T00:23:32;9.78;75.77
66670;DHT22;53568;52.164;4.472;2023-02-11T00:25:58;9.74;75.81
66670;DHT22;53568;52.164;4.472;2023-02-11T00:28:24;9.78;75.79
66670;DHT22;53568;52.164;4.472;2023-02-11T00:30:56;9.77;75.65
66670;DHT22;53568;52.164;4.472;2023-02-11T00:33:23;9.74;75.43
66670;DHT22;53568;52.164;4.472;2023-02-11T00:35:48;9.78;75.23
66670;DHT22;53568;52.164;4.472;2023-02-11T00:38:14;9.70;75.05
66670;DHT22;53568;52.164;4.472;2023-02-11T00:40:39;9.65;75.00
66670;DHT22;53568;52.164;4.472;2023-02-11T00:43:08;9.65;75.07
66670;DHT22;53568;52.164;4.472;2023-02-11T00:45:34;9.77;74.76
66670;DHT22;53568;52.164;4.472;2023-02-11T00:47:59;9.80;74.54
66670;DHT22;53568;52.164;4.472;2023-02-11T00:50:25;9.78;74.50
66670;DHT22;53568;52.164;4.472;2023-02-11T00:52:50;9.80;74.48
66670;DHT22;53568;52.164;4.472;2023-02-11T00:55:16;9.80;74.38
66670;DHT22;53568;52.164;4.472;2023-02-11T00:57:42;9.80;74.50
66670;DHT22;53568;52.164;4.472;2023-02-11T01:00:11;9.80;74.49
66670;DHT22;53568;52.164;4.472;2023-02-11T01:02:37;9.80;74.70
66670;DHT22;53568;52.164;4.472;2023-02-11T01:05:03;9.87;74.53
66670;DHT22;53568;52.164;4.472;2023-02-11T01:07:29;9.71;75.12
66670;DHT22;53568;52.164;4.472;2023-02-11T01:09:54;9.65;75.38
66670;DHT22;53568;52.164;4.472;2023-02-11T01:12:20;9.64;75.49
66670;DHT22;53568;52.164;4.472;2023-02-11T01:14:46;9.64;75.60
66670;DHT22;53568;52.164;4.472;2023-02-11T01:17:11;9.71;75.61
66670;DHT22;53568;52.164;4.472;2023-02-11T01:19:37;9.74;75.52
66670;DHT22;53568;52.164;4.472;2023-02-11T01:22:03;9.71;75.69
66670;DHT22;53568;52.164;4.472;2023-02-11T01:24:29;9.62;76.02
66670;DHT22;53568;52.164;4.472;2023-02-11T01:26:55;9.64;76.01
66670;DHT22;53568;52.164;4.472;2023-02-11T01:29:20;9.61;76.16
66670;DHT22;53568;52.164;4.472;2023-02-11T01:31:48;9.69;76.10
66670;DHT22;53568;52.164;4.472;2023-02-11T01:34:14;9.61;76.28
66670;DHT22;53568;52.164;4.472;2023-02-11T01:36:40;9.61;76.45
66670;DHT22;53568;52.164;4.472;2023-02-11T01:39:06;9.57;76.66
66670;DHT22;53568;52.164;4.472;2023-02-11T01:41:33;9.47;76.89
66670;DHT22;53568;52.164;4.472;2023-02-11T01:44:29;9.46;76.89
66670;DHT22;53568;52.164;4.472;2023-02-11T01:46:55;9.54;76.79
66670;DHT22;53568;52.164;4.472;2023-02-11T01:49:28;9.44;77.25
66670;DHT22;53568;52.164;4.472;2023-02-11T01:52:02;9.47;77.15
66670;DHT22;53568;52.164;4.472;2023-02-11T01:54:32;9.47;77.15
66670;DHT22;53568;52.164;4.472;2023-02-11T01:57:21;9.54;77.04
66670;DHT22;53568;52.164;4.472;2023-02-11T02:00:12;9.58;76.98
66670;DHT22;53568;52.164;4.472;2023-02-11T02:05:33;9.62;76.65
66670;DHT22;53568;52.164;4.472;2023-02-11T02:08:08;9.54;76.87
66670;DHT22;53568;52.164;4.472;2023-02-11T02:10:40;9.58;76.89
66670;DHT22;53568;52.164;4.472;2023-02-11T02:13:06;9.61;76.98
66670;DHT22;53568;52.164;4.472;2023-02-11T02:15:34;9.67;76.78
66670;DHT22;53568;52.164;4.472;2023-02-11T02:18:16;9.61;76.84
66670;DHT22;53568;52.164;4.472;2023-02-11T02:34:42;9.52;78.08
66670;DHT22;53568;52.164;4.472;2023-02-11T02:37:30;9.52;78.25
66670;DHT22;53568;52.164;4.472;2023-02-11T02:40:03;9.55;78.25
66670;DHT22;53568;52.164;4.472;2023-02-11T02:42:30;9.51;78.52
66670;DHT22;53568;52.164;4.472;2023-02-11T02:44:57;9.38;78.84
66670;DHT22;53568;52.164;4.472;2023-02-11T02:47:22;9.46;78.84
66670;DHT22;53568;52.164;4.472;2023-02-11T02:49:48;9.38;79.27
66670;DHT22;53568;52.164;4.472;2023-02-11T02:52:45;9.51;78.85
66670;DHT22;53568;52.164;4.472;2023-02-11T02:58:51;9.58;78.72
66670;DHT22;53568;52.164;4.472;2023-02-11T03:01:34;9.64;78.64
66670;DHT22;53568;52.164;4.472;2023-02-11T03:05:00;9.60;78.66
66670;DHT22;53568;52.164;4.472;2023-02-11T03:10:37;9.54;79.09
66670;DHT22;53568;52.164;4.472;2023-02-11T03:13:06;9.50;79.08
66670;DHT22;53568;52.164;4.472;2023-02-11T03:15:37;9.51;79.13
66670;DHT22;53568;52.164;4.472;2023-02-11T03:18:07;9.48;79.16
66670;DHT22;53568;52.164;4.472;2023-02-11T03:20:35;9.48;79.29
66670;DHT22;53568;52.164;4.472;2023-02-11T03:23:11;9.50;79.26
66670;DHT22;53568;52.164;4.472;2023-02-11T03:25:47;9.48;79.35
66670;DHT22;53568;52.164;4.472;2023-02-11T03:33:45;9.46;79.55
66670;DHT22;53568;52.164;4.472;2023-02-11T03:36:23;9.47;79.60
66670;DHT22;53568;52.164;4.472;2023-02-11T03:38:55;9.43;79.49
66670;DHT22;53568;52.164;4.472;2023-02-11T03:41:24;9.51;79.52
66670;DHT22;53568;52.164;4.472;2023-02-11T03:43:56;9.50;79.62
66670;DHT22;53568;52.164;4.472;2023-02-11T03:46:30;9.46;79.76
66670;DHT22;53568;52.164;4.472;2023-02-11T03:49:02;9.46;79.82
66670;DHT22;53568;52.164;4.472;2023-02-11T03:51:31;9.46;79.93
66670;DHT22;53568;52.164;4.472;2023-02-11T03:54:01;9.38;80.25
66670;DHT22;53568;52.164;4.472;2023-02-11T03:56:33;9.38;80.21
66670;DHT22;53568;52.164;4.472;2023-02-11T03:59:00;9.28;80.58
66670;DHT22;53568;52.164;4.472;2023-02-11T04:01:26;9.30;80.63
66670;DHT22;53568;52.164;4.472;2023-02-11T04:03:51;9.31;80.74
66670;DHT22;53568;52.164;4.472;2023-02-11T04:06:17;9.31;80.71
66670;DHT22;53568;52.164;4.472;2023-02-11T04:08:42;9.33;80.69
66670;DHT22;53568;52.164;4.472;2023-02-11T04:11:08;9.31;80.86
66670;DHT22;53568;52.164;4.472;2023-02-11T04:13:34;9.28;81.08
66670;DHT22;53568;52.164;4.472;2023-02-11T04:15:59;9.27;81.08
66670;DHT22;53568;52.164;4.472;2023-02-11T04:18:25;9.20;81.25
66670;DHT22;53568;52.164;4.472;2023-02-11T04:20:50;9.24;81.22
66670;DHT22;53568;52.164;4.472;2023-02-11T04:23:16;9.30;81.12
66670;DHT22;53568;52.164;4.472;2023-02-11T04:25:41;9.30;81.34
66670;DHT22;53568;52.164;4.472;2023-02-11T04:28:07;9.33;81.23
66670;DHT22;53568;52.164;4.472;2023-02-11T04:30:32;9.28;81.22
66670;DHT22;53568;52.164;4.472;2023-02-11T04:32:58;9.38;81.21
66670;DHT22;53568;52.164;4.472;2023-02-11T04:35:24;9.36;81.17
66670;DHT22;53568;52.164;4.472;2023-02-11T04:37:49;9.44;80.96
66670;DHT22;53568;52.164;4.472;2023-02-11T04:40:15;9.34;81.10
66670;DHT22;53568;52.164;4.472;2023-02-11T04:42:40;9.31;81.32
66670;DHT22;53568;52.164;4.472;2023-02-11T04:45:06;9.36;81.18
66670;DHT22;53568;52.164;4.472;2023-02-11T04:47:32;9.36;81.31
66670;DHT22;53568;52.164;4.472;2023-02-11T04:49:58;9.41;81.21
66670;DHT22;53568;52.164;4.472;2023-02-11T04:52:24;9.37;81.40
66670;DHT22;53568;52.164;4.472;2023-02-11T04:54:49;9.40;81.34
66670;DHT22;53568;52.164;4.472;2023-02-11T04:57:15;9.36;81.60
66670;DHT22;53568;52.164;4.472;2023-02-11T04:59:40;9.37;81.68
66670;DHT22;53568;52.164;4.472;2023-02-11T05:02:06;9.34;81.78
66670;DHT22;53568;52.164;4.472;2023-02-11T05:04:31;9.37;81.78
66670;DHT22;53568;52.164;4.472;2023-02-11T05:06:57;9.30;81.99
66670;DHT22;53568;52.164;4.472;2023-02-11T05:09:22;9.38;81.90
66670;DHT22;53568;52.164;4.472;2023-02-11T05:11:48;9.34;82.07
66670;DHT22;53568;52.164;4.472;2023-02-11T05:14:14;9.34;82.16
66670;DHT22;53568;52.164;4.472;2023-02-11T05:16:39;9.30;82.33
66670;DHT22;53568;52.164;4.472;2023-02-11T05:19:05;9.27;82.35
66670;DHT22;53568;52.164;4.472;2023-02-11T05:21:30;9.33;82.35
66670;DHT22;53568;52.164;4.472;2023-02-11T05:23:56;9.30;82.46
66670;DHT22;53568;52.164;4.472;2023-02-11T05:26:22;9.30;82.30
66670;DHT22;53568;52.164;4.472;2023-02-11T05:28:47;9.36;82.21
66670;DHT22;53568;52.164;4.472;2023-02-11T05:31:13;9.36;82.31
66670;DHT22;53568;52.164;4.472;2023-02-11T05:33:40;9.41;82.16
66670;DHT22;53568;52.164;4.472;2023-02-11T05:36:08;9.44;82.09
66670;DHT22;53568;52.164;4.472;2023-02-11T05:38:35;9.46;82.15
66670;DHT22;53568;52.164;4.472;2023-02-11T05:41:02;9.48;81.97
66670;DHT22;53568;52.164;4.472;2023-02-11T05:43:27;9.51;81.93
66670;DHT22;53568;52.164;4.472;2023-02-11T05:45:53;9.60;81.81
66670;DHT22;53568;52.164;4.472;2023-02-11T05:48:19;9.58;81.64
66670;DHT22;53568;52.164;4.472;2023-02-11T05:50:44;9.64;81.63
66670;DHT22;53568;52.164;4.472;2023-02-11T05:53:10;9.58;81.63
66670;DHT22;53568;52.164;4.472;2023-02-11T05:55:36;9.52;81.80
66670;DHT22;53568;52.164;4.472;2023-02-11T05:58:04;9.51;81.89
66670;DHT22;53568;52.164;4.472;2023-02-11T06:00:29;9.52;82.01
66670;DHT22;53568;52.164;4.472;2023-02-11T06:02:55;9.55;81.93
66670;DHT22;53568;52.164;4.472;2023-02-11T06:05:20;9.50;82.14
66670;DHT22;53568;52.164;4.472;2023-02-11T06:07:46;9.55;82.07
66670;DHT22;53568;52.164;4.472;2023-02-11T06:10:11;9.52;82.20
66670;DHT22;53568;52.164;4.472;2023-02-11T06:12:37;9.55;82.13
66670;DHT22;53568;52.164;4.472;2023-02-11T06:15:04;9.44;82.41
66670;DHT22;53568;52.164;4.472;2023-02-11T06:17:30;9.50;82.41
66670;DHT22;53568;52.164;4.472;2023-02-11T06:19:58;9.41;82.63
66670;DHT22;53568;52.164;4.472;2023-02-11T06:22:24;9.41;82.60
66670;DHT22;53568;52.164;4.472;2023-02-11T06:24:50;9.43;82.61
66670;DHT22;53568;52.164;4.472;2023-02-11T06:27:16;9.41;82.68
66670;DHT22;53568;52.164;4.472;2023-02-11T06:29:43;9.46;82.62
66670;DHT22;53568;52.164;4.472;2023-02-11T06:32:09;9.40;82.86
66670;DHT22;53568;52.164;4.472;2023-02-11T06:34:35;9.36;82.85
66670;DHT22;53568;52.164;4.472;2023-02-11T06:37:01;9.38;82.89
66670;DHT22;53568;52.164;4.472;2023-02-11T06:39:26;9.33;82.87
66670;DHT22;53568;52.164;4.472;2023-02-11T06:41:52;9.31;83.10
66670;DHT22;53568;52.164;4.472;2023-02-11T06:44:17;9.38;83.11
66670;DHT22;53568;52.164;4.472;2023-02-11T06:46:43;9.36;82.97
66670;DHT22;53568;52.164;4.472;2023-02-11T06:49:08;9.47;82.94
66670;DHT22;53568;52.164;4.472;2023-02-11T06:51:34;9.37;83.06
66670;DHT22;53568;52.164;4.472;2023-02-11T06:53:59;9.41;83.10
66670;DHT22;53568;52.164;4.472;2023-02-11T06:56:25;9.43;83.02
66670;DHT22;53568;52.164;4.472;2023-02-11T06:58:53;9.37;83.22
66670;DHT22;53568;52.164;4.472;2023-02-11T07:01:24;9.38;83.16
66670;DHT22;53568;52.164;4.472;2023-02-11T07:03:50;9.46;83.07
66670;DHT22;53568;52.164;4.472;2023-02-11T07:06:20;9.47;82.96
66670;DHT22;53568;52.164;4.472;2023-02-11T07:08:46;9.52;82.86
66670;DHT22;53568;52.164;4.472;2023-02-11T07:11:18;9.52;82.80
66670;DHT22;53568;52.164;4.472;2023-02-11T07:13:45;9.54;82.75
66670;DHT22;53568;52.164;4.472;2023-02-11T07:16:14;9.55;82.65
66670;DHT22;53568;52.164;4.472;2023-02-11T07:18:41;9.57;82.49
66670;DHT22;53568;52.164;4.472;2023-02-11T07:21:09;9.57;82.48
66670;DHT22;53568;52.164;4.472;2023-02-11T07:23:36;9.55;82.61
66670;DHT22;53568;52.164;4.472;2023-02-11T07:26:13;9.58;82.62
66670;DHT22;53568;52.164;4.472;2023-02-11T07:28:39;9.52;82.65
66670;DHT22;53568;52.164;4.472;2023-02-11T07:31:14;9.52;82.73
66670;DHT22;53568;52.164;4.472;2023-02-11T07:33:40;9.46;82.85
66670;DHT22;53568;52.164;4.472;2023-02-11T07:36:07;9.50;83.05
66670;DHT22;53568;52.164;4.472;2023-02-11T07:38:34;9.50;83.03
66670;DHT22;53568;52.164;4.472;2023-02-11T07:41:01;9.55;82.92
66670;DHT22;53568;52.164;4.472;2023-02-11T07:43:27;9.54;83.02
66670;DHT22;53568;52.164;4.472;2023-02-11T07:45:52;9.58;82.89
66670;DHT22;53568;52.164;4.472;2023-02-11T07:48:18;9.62;82.72
66670;DHT22;53568;52.164;4.472;2023-02-11T07:50:44;9.61;82.80
66670;DHT22;53568;52.164;4.472;2023-02-11T07:53:09;9.57;82.77
66670;DHT22;53568;52.164;4.472;2023-02-11T07:55:34;9.61;82.82
66670;DHT22;53568;52.164;4.472;2023-02-11T07:58:00;9.58;82.71
66670;DHT22;53568;52.164;4.472;2023-02-11T08:00:25;9.64;82.68
66670;DHT22;53568;52.164;4.472;2023-02-11T08:02:51;9.69;82.57
66670;DHT22;53568;52.164;4.472;2023-02-11T08:05:16;9.71;82.46
66670;DHT22;53568;52.164;4.472;2023-02-11T08:07:42;9.67;82.47
66670;DHT22;53568;52.164;4.472;2023-02-11T08:10:08;9.55;82.62
66670;DHT22;53568;52.164;4.472;2023-02-11T08:12:33;9.67;82.74
66670;DHT22;53568;52.164;4.472;2023-02-11T08:14:59;9.74;82.43
66670;DHT22;53568;52.164;4.472;2023-02-11T08:17:24;9.71;82.65
66670;DHT22;53568;52.164;4.472;2023-02-11T08:19:50;9.80;82.36
66670;DHT22;53568;52.164;4.472;2023-02-11T08:22:15;9.78;82.23
66670;DHT22;53568;52.164;4.472;2023-02-11T08:24:41;9.77;82.26
66670;DHT22;53568;52.164;4.472;2023-02-11T08:27:06;9.75;82.42
66670;DHT22;53568;52.164;4.472;2023-02-11T08:29:32;9.80;82.31
66670;DHT22;53568;52.164;4.472;2023-02-11T08:31:57;9.71;82.42
66670;DHT22;53568;52.164;4.472;2023-02-11T08:34:23;9.73;82.49
66670;DHT22;53568;52.164;4.472;2023-02-11T08:36:48;9.78;82.39
66670;DHT22;53568;52.164;4.472;2023-02-11T08:39:17;9.74;82.51
66670;DHT22;53568;52.164;4.472;2023-02-11T08:41:44;9.78;82.34
66670;DHT22;53568;52.164;4.472;2023-02-11T08:44:10;9.69;82.45
66670;DHT22;53568;52.164;4.472;2023-02-11T08:46:36;9.91;82.10
66670;DHT22;53568;52.164;4.472;2023-02-11T08:49:03;9.95;81.98
66670;DHT22;53568;52.164;4.472;2023-02-11T08:51:29;9.98;81.64
66670;DHT22;53568;52.164;4.472;2023-02-11T08:53:56;9.95;81.64
66670;DHT22;53568;52.164;4.472;2023-02-11T08:56:22;10.04;81.53
66670;DHT22;53568;52.164;4.472;2023-02-11T08:58:48;9.94;81.54
66670;DHT22;53568;52.164;4.472;2023-02-11T09:01:21;9.98;81.68
66670;DHT22;53568;52.164;4.472;2023-02-11T09:03:47;9.98;81.62
66670;DHT22;53568;52.164;4.472;2023-02-11T09:06:13;10.04;81.57
66670;DHT22;53568;52.164;4.472;2023-02-11T09:08:41;10.12;81.31
66670;DHT22;53568;52.164;4.472;2023-02-11T09:11:07;10.05;81.50
66670;DHT22;53568;52.164;4.472;2023-02-11T09:13:34;10.12;81.20
66670;DHT22;53568;52.164;4.472;2023-02-11T09:16:02;10.05;81.23
66670;DHT22;53568;52.164;4.472;2023-02-11T09:18:28;10.08;81.01
66670;DHT22;53568;52.164;4.472;2023-02-11T09:21:04;10.18;80.88
66670;DHT22;53568;52.164;4.472;2023-02-11T09:23:30;10.18;80.78
66670;DHT22;53568;52.164;4.472;2023-02-11T09:26:04;10.09;80.89
66670;DHT22;53568;52.164;4.472;2023-02-11T09:28:29;10.15;80.73
66670;DHT22;53568;52.164;4.472;2023-02-11T09:30:55;10.18;80.82
66670;DHT22;53568;52.164;4.472;2023-02-11T09:33:21;10.26;80.54
66670;DHT22;53568;52.164;4.472;2023-02-11T09:35:47;10.22;80.60
66670;DHT22;53568;52.164;4.472;2023-02-11T09:38:12;10.08;80.90
66670;DHT22;53568;52.164;4.472;2023-02-11T09:40:42;10.15;80.88
66670;DHT22;53568;52.164;4.472;2023-02-11T09:43:20;10.24;80.34
66670;DHT22;53568;52.164;4.472;2023-02-11T09:45:46;10.32;80.32
66670;DHT22;53568;52.164;4.472;2023-02-11T09:48:19;10.38;79.92
66670;DHT22;53568;52.164;4.472;2023-02-11T09:50:58;10.39;79.75
66670;DHT22;53568;52.164;4.472;2023-02-11T09:53:26;10.26;79.78
66670;DHT22;53568;52.164;4.472;2023-02-11T09:55:56;10.29;79.82
66670;DHT22;53568;52.164;4.472;2023-02-11T09:58:27;10.31;79.67
66670;DHT22;53568;52.164;4.472;2023-02-11T10:11:54;10.28;79.96
66670;DHT22;53568;52.164;4.472;2023-02-11T10:14:48;10.31;79.97
66670;DHT22;53568;52.164;4.472;2023-02-11T10:17:28;10.34;79.94
66670;DHT22;53568;52.164;4.472;2023-02-11T10:22:56;10.41;79.54
66670;DHT22;53568;52.164;4.472;2023-02-11T10:25:24;10.35;79.51
66670;DHT22;53568;52.164;4.472;2023-02-11T10:27:51;10.36;79.54
66670;DHT22;53568;52.164;4.472;2023-02-11T10:30:41;10.35;79.51
66670;DHT22;53568;52.164;4.472;2023-02-11T10:33:30;10.35;79.46
66670;DHT22;53568;52.164;4.472;2023-02-11T10:35:58;10.34;79.60
66670;DHT22;53568;52.164;4.472;2023-02-11T10:38:24;10.35;79.46
66670;DHT22;53568;52.164;4.472;2023-02-11T10:40:50;10.49;79.11
66670;DHT22;53568;52.164;4.472;2023-02-11T10:43:19;10.52;79.04
66670;DHT22;53568;52.164;4.472;2023-02-11T10:45:50;10.52;78.73
66670;DHT22;53568;52.164;4.472;2023-02-11T10:53:43;10.41;78.86
66670;DHT22;53568;52.164;4.472;2023-02-11T10:57:02;10.44;78.81
66670;DHT22;53568;52.164;4.472;2023-02-11T10:59:33;10.53;78.68
66670;DHT22;53568;52.164;4.472;2023-02-11T11:02:22;10.53;78.47
66670;DHT22;53568;52.164;4.472;2023-02-11T11:04:48;10.62;78.33
66670;DHT22;53568;52.164;4.472;2023-02-11T11:07:15;10.65;78.16
66670;DHT22;53568;52.164;4.472;2023-02-11T11:12:47;10.62;78.06
66670;DHT22;53568;52.164;4.472;2023-02-11T11:15:17;10.59;78.28
66670;DHT22;53568;52.164;4.472;2023-02-11T11:17:44;10.62;78.12
66670;DHT22;53568;52.164;4.472;2023-02-11T11:20:29;10.63;78.00
66670;DHT22;53568;52.164;4.472;2023-02-11T11:23:14;10.60;78.34
66670;DHT22;53568;52.164;4.472;2023-02-11T11:25:44;10.62;78.20
66670;DHT22;53568;52.164;4.472;2023-02-11T11:28:25;10.55;78.50
66670;DHT22;53568;52.164;4.472;2023-02-11T11:30:55;10.60;78.60
66670;DHT22;53568;52.164;4.472;2023-02-11T11:33:28;10.68;78.24
66670;DHT22;53568;52.164;4.472;2023-02-11T11:35:58;10.60;78.35
66670;DHT22;53568;52.164;4.472;2023-02-11T11:38:26;10.55;78.65
66670;DHT22;53568;52.164;4.472;2023-02-11T11:41:45;10.60;78.51
66670;DHT22;53568;52.164;4.472;2023-02-11T11:55:18;10.65;78.38
66670;DHT22;53568;52.164;4.472;2023-02-11T11:57:46;10.63;78.33
66670;DHT22;53568;52.164;4.472;2023-02-11T12:00:28;10.66;78.17
66670;DHT22;53568;52.164;4.472;2023-02-11T12:09:00;10.70;77.90
66670;DHT22;53568;52.164;4.472;2023-02-11T12:17:40;10.72;77.78
66670;DHT22;53568;52.164;4.472;2023-02-11T12:20:24;10.63;77.93
66670;DHT22;53568;52.164;4.472;2023-02-11T12:31:27;10.84;77.34
66670;DHT22;53568;52.164;4.472;2023-02-11T12:39:43;10.89;77.05
66670;DHT22;53568;52.164;4.472;2023-02-11T12:56:35;10.92;76.54
66670;DHT22;53568;52.164;4.472;2023-02-11T12:59:51;10.96;76.41
66670;DHT22;53568;52.164;4.472;2023-02-11T13:02:01;10.90;76.69
66670;DHT22;53568;52.164;4.472;2023-02-11T13:04:34;11.02;76.14
66670;DHT22;53568;52.164;4.472;2023-02-11T13:07:13;10.99;75.85
66670;DHT22;53568;52.164;4.472;2023-02-11T13:09:59;10.92;75.84
66670;DHT22;53568;52.164;4.472;2023-02-11T13:12:29;10.97;75.83
66670;DHT22;53568;52.164;4.472;2023-02-11T13:15:15;10.95;75.86
66670;DHT22;53568;52.164;4.472;2023-02-11T13:17:53;11.00;75.63
66670;DHT22;53568;52.164;4.472;2023-02-11T13:23:05;11.12;75.17
66670;DHT22;53568;52.164;4.472;2023-02-11T13:30:50;11.16;75.05
66670;DHT22;53568;52.164;4.472;2023-02-11T13:33:37;11.02;75.35
66670;DHT22;53568;52.164;4.472;2023-02-11T13:36:19;11.09;75.31
66670;DHT22;53568;52.164;4.472;2023-02-11T13:39:18;11.09;75.13
66670;DHT22;53568;52.164;4.472;2023-02-11T13:41:42;11.06;75.37
66670;DHT22;53568;52.164;4.472;2023-02-11T13:49:21;11.23;74.75
66670;DHT22;53568;52.164;4.472;2023-02-11T13:51:48;11.27;74.46
66670;DHT22;53568;52.164;4.472;2023-02-11T13:54:29;11.26;74.01
66670;DHT22;53568;52.164;4.472;2023-02-11T13:59:46;11.23;74.35
66670;DHT22;53568;52.164;4.472;2023-02-11T14:02:25;11.20;74.39
66670;DHT22;53568;52.164;4.472;2023-02-11T14:05:30;11.20;74.20
66670;DHT22;53568;52.164;4.472;2023-02-11T14:08:21;11.17;74.28
66670;DHT22;53568;52.164;4.472;2023-02-11T14:11:09;11.10;74.60
66670;DHT22;53568;52.164;4.472;2023-02-11T14:16:23;11.04;74.54
66670;DHT22;53568;52.164;4.472;2023-02-11T14:29:17;10.96;74.73
66670;DHT22;53568;52.164;4.472;2023-02-11T14:31:53;10.84;74.83
66670;DHT22;53568;52.164;4.472;2023-02-11T14:37:32;10.82;75.17
66670;DHT22;53568;52.164;4.472;2023-02-11T14:40:39;10.86;74.97
66670;DHT22;53568;52.164;4.472;2023-02-11T14:43:18;10.77;75.16
66670;DHT22;53568;52.164;4.472;2023-02-11T14:45:50;10.83;75.15
66670;DHT22;53568;52.164;4.472;2023-02-11T14:48:19;10.82;74.96
66670;DHT22;53568;52.164;4.472;2023-02-11T14:53:30;10.84;74.99
66670;DHT22;53568;52.164;4.472;2023-02-11T14:55:56;10.92;74.91
66670;DHT22;53568;52.164;4.472;2023-02-11T14:58:28;10.89;74.54
66670;DHT22;53568;52.164;4.472;2023-02-11T15:00:58;10.92;74.70
66670;DHT22;53568;52.164;4.472;2023-02-11T15:03:40;10.93;74.57
66670;DHT22;53568;52.164;4.472;2023-02-11T15:06:20;11.02;74.37
66670;DHT22;53568;52.164;4.472;2023-02-11T15:09:17;11.02;74.42
66670;DHT22;53568;52.164;4.472;2023-02-11T15:11:48;10.97;74.46
66670;DHT22;53568;52.164;4.472;2023-02-11T15:14:24;11.04;74.34
66670;DHT22;53568;52.164;4.472;2023-02-11T15:16:53;11.07;74.00
66670;DHT22;53568;52.164;4.472;2023-02-11T15:21:59;11.07;73.96
66670;DHT22;53568;52.164;4.472;2023-02-11T15:24:32;10.97;73.84
66670;DHT22;53568;52.164;4.472;2023-02-11T15:29:47;10.95;74.13
66670;DHT22;53568;52.164;4.472;2023-02-11T15:32:14;10.95;73.97
66670;DHT22;53568;52.164;4.472;2023-02-11T15:34:45;10.92;74.13
66670;DHT22;53568;52.164;4.472;2023-02-11T15:37:27;10.88;74.01
66670;DHT22;53568;52.164;4.472;2023-02-11T15:40:09;10.90;74.16
66670;DHT22;53568;52.164;4.472;2023-02-11T15:42:36;10.96;74.18
66670;DHT22;53568;52.164;4.472;2023-02-11T15:47:45;11.12;73.49
66670;DHT22;53568;52.164;4.472;2023-02-11T15:50:27;11.00;73.39
66670;DHT22;53568;52.164;4.472;2023-02-11T15:52:56;11.03;73.45
66670;DHT22;53568;52.164;4.472;2023-02-11T15:55:24;10.97;73.71
66670;DHT22;53568;52.164;4.472;2023-02-11T15:57:59;10.90;73.89
66670;DHT22;53568;52.164;4.472;2023-02-11T16:00:35;10.89;74.06
66670;DHT22;53568;52.164;4.472;2023-02-11T16:03:01;10.83;74.21
66670;DHT22;53568;52.164;4.472;2023-02-11T16:07:55;10.84;74.15
66670;DHT22;53568;52.164;4.472;2023-02-11T16:10:32;10.86;74.27
66670;DHT22;53568;52.164;4.472;2023-02-11T16:13:17;10.83;74.27
66670;DHT22;53568;52.164;4.472;2023-02-11T16:15:47;10.84;74.20
66670;DHT22;53568;52.164;4.472;2023-02-11T16:20:59;10.73;74.72
66670;DHT22;53568;52.164;4.472;2023-02-11T16:23:34;10.63;75.03
66670;DHT22;53568;52.164;4.472;2023-02-11T16:26:33;10.72;75.01
66670;DHT22;53568;52.164;4.472;2023-02-11T16:29:13;10.80;74.83
66670;DHT22;53568;52.164;4.472;2023-02-11T16:31:42;10.83;74.63
66670;DHT22;53568;52.164;4.472;2023-02-11T16:36:43;10.84;74.39
66670;DHT22;53568;52.164;4.472;2023-02-11T16:39:09;10.82;74.42
66670;DHT22;53568;52.164;4.472;2023-02-11T16:41:35;10.80;74.46
66670;DHT22;53568;52.164;4.472;2023-02-11T16:44:01;10.79;74.50
66670;DHT22;53568;52.164;4.472;2023-02-11T16:46:26;10.76;74.55
66670;DHT22;53568;52.164;4.472;2023-02-11T16:48:54;10.80;74.63
66670;DHT22;53568;52.164;4.472;2023-02-11T16:51:21;10.84;74.44
66670;DHT22;53568;52.164;4.472;2023-02-11T16:53:46;10.80;74.46
66670;DHT22;53568;52.164;4.472;2023-02-11T16:56:14;10.83;74.44
66670;DHT22;53568;52.164;4.472;2023-02-11T16:58:44;10.79;74.51
66670;DHT22;53568;52.164;4.472;2023-02-11T17:01:09;10.75;74.60
66670;DHT22;53568;52.164;4.472;2023-02-11T17:03:38;10.82;74.48
66670;DHT22;53568;52.164;4.472;2023-02-11T17:06:09;10.83;74.51
66670;DHT22;53568;52.164;4.472;2023-02-11T17:08:35;10.83;74.40
66670;DHT22;53568;52.164;4.472;2023-02-11T17:11:02;10.83;74.42
66670;DHT22;53568;52.164;4.472;2023-02-11T17:13:28;10.83;74.38
66670;DHT22;53568;52.164;4.472;2023-02-11T17:15:53;10.82;74.41
66670;DHT22;53568;52.164;4.472;2023-02-11T17:18:19;10.83;74.39
66670;DHT22;53568;52.164;4.472;2023-02-11T17:20:44;10.89;74.30
66670;DHT22;53568;52.164;4.472;2023-02-11T17:23:10;10.90;74.18
66670;DHT22;53568;52.164;4.472;2023-02-11T17:25:35;10.96;74.09
66670;DHT22;53568;52.164;4.472;2023-02-11T17:28:03;10.97;73.87
66670;DHT22;53568;52.164;4.472;2023-02-11T17:30:29;10.93;73.97
66670;DHT22;53568;52.164;4.472;2023-02-11T17:32:54;10.90;74.01
66670;DHT22;53568;52.164;4.472;2023-02-11T17:35:20;10.89;73.97
66670;DHT22;53568;52.164;4.472;2023-02-11T17:37:45;10.90;74.01
66670;DHT22;53568;52.164;4.472;2023-02-11T17:40:12;10.84;74.03
66670;DHT22;53568;52.164;4.472;2023-02-11T17:42:38;10.76;74.35
66670;DHT22;53568;52.164;4.472;2023-02-11T17:45:03;10.80;74.53
66670;DHT22;53568;52.164;4.472;2023-02-11T17:47:29;10.88;74.41
66670;DHT22;53568;52.164;4.472;2023-02-11T17:49:55;10.83;74.38
66670;DHT22;53568;52.164;4.472;2023-02-11T17:52:20;10.79;74.37
66670;DHT22;53568;52.164;4.472;2023-02-11T17:54:48;10.77;74.54
66670;DHT22;53568;52.164;4.472;2023-02-11T17:57:14;10.82;74.53
66670;DHT22;53568;52.164;4.472;2023-02-11T17:59:39;10.73;74.63
66670;DHT22;53568;52.164;4.472;2023-02-11T18:02:05;10.77;74.71
66670;DHT22;53568;52.164;4.472;2023-02-11T18:04:31;10.80;74.75
66670;DHT22;53568;52.164;4.472;2023-02-11T18:06:57;10.83;74.63
66670;DHT22;53568;52.164;4.472;2023-02-11T18:09:24;10.88;74.55
66670;DHT22;53568;52.164;4.472;2023-02-11T18:11:50;10.73;74.66
66670;DHT22;53568;52.164;4.472;2023-02-11T18:14:18;10.76;74.76
66670;DHT22;53568;52.164;4.472;2023-02-11T18:16:43;10.79;74.61
66670;DHT22;53568;52.164;4.472;2023-02-11T18:19:11;10.80;74.75
66670;DHT22;53568;52.164;4.472;2023-02-11T18:21:37;10.79;74.78
66670;DHT22;53568;52.164;4.472;2023-02-11T18:24:03;10.68;74.88
66670;DHT22;53568;52.164;4.472;2023-02-11T18:26:29;10.72;74.96
66670;DHT22;53568;52.164;4.472;2023-02-11T18:28:57;10.70;74.91
66670;DHT22;53568;52.164;4.472;2023-02-11T18:31:25;10.75;74.92